createdAt,value
2018-05-02T00:00:43.036Z,0
2018-05-02T00:01:43.513Z,0
2018-05-02T00:02:43.272Z,0
2018-05-02T00:03:43.541Z,0
2018-05-02T00:04:43.273Z,0
2018-05-02T00:05:43.507Z,0
2018-05-02T00:06:43.504Z,0
2018-05-02T00:07:43.553Z,0
2018-05-02T00:08:42.988Z,0
2018-05-02T00:09:42.991Z,0
2018-05-02T00:10:43.065Z,0
2018-05-02T00:11:43.480Z,0
2018-05-02T00:12:43.227Z,0
2018-05-02T00:13:43.221Z,0
2018-05-02T00:14:43.222Z,0
2018-05-02T00:15:43.290Z,0
2018-05-02T00:16:43.888Z,0
2018-05-02T00:17:43.202Z,0
2018-05-02T00:18:43.456Z,0
2018-05-02T00:19:42.943Z,0
2018-05-02T00:20:43.043Z,0
2018-05-02T00:21:43.240Z,0
2018-05-02T00:22:42.924Z,0
2018-05-02T00:23:42.412Z,0
2018-05-02T00:24:43.168Z,0
2018-05-02T00:25:43.183Z,0
2018-05-02T00:26:43.155Z,0
2018-05-02T00:27:43.133Z,0
2018-05-02T00:28:43.519Z,0
2018-05-02T00:29:42.913Z,0
2018-05-02T00:30:43.531Z,0
2018-05-02T00:31:42.622Z,0
2018-05-02T00:32:42.870Z,0
2018-05-02T00:33:42.616Z,0
2018-05-02T00:34:42.919Z,0
2018-05-02T00:35:43.153Z,0
2018-05-02T00:36:43.124Z,0
2018-05-02T00:37:43.089Z,0
2018-05-02T00:38:43.375Z,0
2018-05-02T00:39:42.859Z,0
2018-05-02T00:40:43.429Z,0
2018-05-02T00:41:42.836Z,0
2018-05-02T00:42:43.088Z,0
2018-05-02T00:43:43.071Z,0
2018-05-02T00:44:42.815Z,0
2018-05-02T00:45:43.073Z,0
2018-05-02T00:46:45.165Z,0
2018-05-02T00:47:43.338Z,0
2018-05-02T00:48:42.848Z,0
2018-05-02T00:49:43.041Z,0
2018-05-02T00:50:43.354Z,0
2018-05-02T00:51:42.525Z,0
2018-05-02T00:52:42.276Z,0
2018-05-02T00:53:43.037Z,0
2018-05-02T00:54:42.785Z,0
2018-05-02T00:55:43.144Z,0
2018-05-02T00:56:42.770Z,0
2018-05-02T00:57:42.754Z,0
2018-05-02T00:58:43.019Z,0
2018-05-02T00:59:43.054Z,0
2018-05-02T01:00:43.259Z,0
2018-05-02T01:01:42.474Z,0
2018-05-02T01:02:42.999Z,0
2018-05-02T01:03:43.066Z,0
2018-05-02T01:04:42.722Z,0
2018-05-02T01:05:42.974Z,0
2018-05-02T01:06:42.703Z,0
2018-05-02T01:07:43.197Z,0
2018-05-02T01:08:43.222Z,0
2018-05-02T01:09:42.688Z,0
2018-05-02T01:10:42.732Z,0
2018-05-02T01:11:43.193Z,0
2018-05-02T01:12:43.193Z,0
2018-05-02T01:13:42.945Z,0
2018-05-02T01:14:42.939Z,0
2018-05-02T01:15:43.011Z,0
2018-05-02T01:16:45.004Z,0
2018-05-02T01:17:43.145Z,0
2018-05-02T01:18:42.897Z,0
2018-05-02T01:19:42.941Z,0
2018-05-02T01:20:42.475Z,0
2018-05-02T01:21:43.140Z,0
2018-05-02T01:22:42.936Z,0
2018-05-02T01:23:42.951Z,0
2018-05-02T01:24:43.131Z,0
2018-05-02T01:25:42.683Z,0
2018-05-02T01:26:42.877Z,0
2018-05-02T01:27:42.348Z,0
2018-05-02T01:28:42.843Z,0
2018-05-02T01:29:42.616Z,0
2018-05-02T01:30:43.206Z,0
2018-05-02T01:31:42.614Z,0
2018-05-02T01:32:42.587Z,0
2018-05-02T01:33:42.862Z,0
2018-05-02T01:34:43.076Z,0
2018-05-02T01:35:42.636Z,0
2018-05-02T01:36:42.859Z,0
2018-05-02T01:37:42.575Z,0
2018-05-02T01:38:42.306Z,0
2018-05-02T01:39:42.829Z,0
2018-05-02T01:40:42.365Z,0
2018-05-02T01:41:43.122Z,0
2018-05-02T01:42:42.810Z,0
2018-05-02T01:43:42.794Z,0
2018-05-02T01:44:42.564Z,0
2018-05-02T01:45:42.606Z,0
2018-05-02T01:46:45.976Z,0
2018-05-02T01:47:42.792Z,0
2018-05-02T01:48:42.504Z,0
2018-05-02T01:49:42.254Z,0
2018-05-02T01:50:42.299Z,0
2018-05-02T01:51:42.503Z,0
2018-05-02T01:52:42.517Z,0
2018-05-02T01:53:42.484Z,0
2018-05-02T01:54:42.728Z,0
2018-05-02T01:55:42.283Z,0
2018-05-02T01:56:42.734Z,0
2018-05-02T01:57:42.474Z,0
2018-05-02T01:58:42.718Z,0
2018-05-02T01:59:42.463Z,0
2018-05-02T02:00:42.766Z,0
2018-05-02T02:01:42.230Z,0
2018-05-02T02:02:42.192Z,0
2018-05-02T02:03:42.703Z,0
2018-05-02T02:04:42.689Z,0
2018-05-02T02:05:42.513Z,0
2018-05-02T02:06:42.684Z,0
2018-05-02T02:07:42.981Z,0
2018-05-02T02:08:42.176Z,0
2018-05-02T02:09:42.690Z,0
2018-05-02T02:10:42.664Z,0
2018-05-02T02:11:42.419Z,0
2018-05-02T02:12:42.166Z,0
2018-05-02T02:13:42.410Z,0
2018-05-02T02:14:42.904Z,0
2018-05-02T02:15:42.649Z,0
2018-05-02T02:16:42.947Z,0
2018-05-02T02:17:42.896Z,0
2018-05-02T02:18:42.885Z,0
2018-05-02T02:19:42.375Z,0
2018-05-02T02:20:42.117Z,0
2018-05-02T02:21:42.379Z,0
2018-05-02T02:22:42.873Z,0
2018-05-02T02:23:42.612Z,0
2018-05-02T02:24:42.870Z,0
2018-05-02T02:25:42.626Z,0
2018-05-02T02:26:42.585Z,0
2018-05-02T02:27:42.878Z,0
2018-05-02T02:28:42.583Z,0
2018-05-02T02:29:42.579Z,0
2018-05-02T02:30:42.645Z,0
2018-05-02T02:31:42.598Z,0
2018-05-02T02:32:42.340Z,0
2018-05-02T02:33:43.167Z,0
2018-05-02T02:34:42.330Z,0
2018-05-02T02:35:42.876Z,0
2018-05-02T02:36:42.572Z,0
2018-05-02T02:37:42.298Z,0
2018-05-02T02:38:42.310Z,0
2018-05-02T02:39:42.803Z,0
2018-05-02T02:40:42.525Z,0
2018-05-02T02:41:42.522Z,0
2018-05-02T02:42:42.514Z,0
2018-05-02T02:43:42.289Z,0
2018-05-02T02:44:42.530Z,0
2018-05-02T02:45:42.600Z,0
2018-05-02T02:46:42.018Z,0
2018-05-02T02:47:44.987Z,0
2018-05-02T02:48:42.546Z,0
2018-05-02T02:49:42.741Z,0
2018-05-02T02:50:42.289Z,0
2018-05-02T02:51:42.499Z,0
2018-05-02T02:52:42.462Z,0
2018-05-02T02:53:42.264Z,0
2018-05-02T02:54:42.470Z,0
2018-05-02T02:55:42.548Z,0
2018-05-02T02:56:41.952Z,0
2018-05-02T02:57:42.461Z,0
2018-05-02T02:58:42.482Z,0
2018-05-02T02:59:42.698Z,0
2018-05-02T03:00:42.306Z,0
2018-05-02T03:01:42.232Z,0
2018-05-02T03:02:42.196Z,0
2018-05-02T03:03:42.665Z,0
2018-05-02T03:04:41.923Z,0
2018-05-02T03:05:42.676Z,0
2018-05-02T03:06:42.420Z,0
2018-05-02T03:07:41.928Z,0
2018-05-02T03:08:42.664Z,0
2018-05-02T03:09:42.654Z,0
2018-05-02T03:10:42.449Z,0
2018-05-02T03:11:42.653Z,0
2018-05-02T03:12:42.631Z,0
2018-05-02T03:13:42.147Z,0
2018-05-02T03:14:42.118Z,0
2018-05-02T03:15:42.421Z,0
2018-05-02T03:16:41.889Z,0
2018-05-02T03:17:44.109Z,0
2018-05-02T03:18:42.099Z,0
2018-05-02T03:19:41.839Z,0
2018-05-02T03:20:42.603Z,0
2018-05-02T03:21:42.600Z,0
2018-05-02T03:22:42.344Z,0
2018-05-02T03:23:42.082Z,0
2018-05-02T03:24:42.080Z,0
2018-05-02T03:25:42.599Z,0
2018-05-02T03:26:41.811Z,0
2018-05-02T03:27:42.059Z,0
2018-05-02T03:28:42.315Z,0
2018-05-02T03:29:42.049Z,0
2018-05-02T03:30:42.883Z,0
2018-05-02T03:31:42.556Z,0
2018-05-02T03:32:42.061Z,0
2018-05-02T03:33:42.526Z,0
2018-05-02T03:34:42.029Z,0
2018-05-02T03:35:42.064Z,0
2018-05-02T03:36:42.285Z,0
2018-05-02T03:37:42.273Z,0
2018-05-02T03:38:41.757Z,0
2018-05-02T03:39:42.030Z,0
2018-05-02T03:40:42.286Z,0
2018-05-02T03:41:42.037Z,0
2018-05-02T03:42:42.500Z,0
2018-05-02T03:43:42.492Z,0
2018-05-02T03:44:41.492Z,0
2018-05-02T03:45:42.232Z,0
2018-05-02T03:46:42.472Z,0
2018-05-02T03:47:42.481Z,0
2018-05-02T03:48:41.714Z,0
2018-05-02T03:49:41.465Z,0
2018-05-02T03:50:42.475Z,0
2018-05-02T03:51:41.454Z,0
2018-05-02T03:52:41.948Z,0
2018-05-02T03:53:42.514Z,0
2018-05-02T03:54:42.198Z,0
2018-05-02T03:55:42.231Z,0
2018-05-02T03:56:42.209Z,0
2018-05-02T03:57:42.187Z,0
2018-05-02T03:58:42.168Z,0
2018-05-02T03:59:42.406Z,0
2018-05-02T04:00:41.987Z,0
2018-05-02T04:01:42.424Z,0
2018-05-02T04:02:41.649Z,0
2018-05-02T04:03:41.898Z,0
2018-05-02T04:04:42.391Z,0
2018-05-02T04:05:42.153Z,0
2018-05-02T04:06:42.383Z,0
2018-05-02T04:07:42.135Z,0
2018-05-02T04:08:42.341Z,0
2018-05-02T04:09:41.916Z,0
2018-05-02T04:10:41.675Z,0
2018-05-02T04:11:42.138Z,5
2018-05-02T04:12:42.360Z,5
2018-05-02T04:13:41.643Z,5
2018-05-02T04:14:42.116Z,5
2018-05-02T04:15:41.926Z,5
2018-05-02T04:16:42.096Z,5
2018-05-02T04:17:42.338Z,5
2018-05-02T04:18:44.093Z,5
2018-05-02T04:19:41.836Z,5
2018-05-02T04:20:41.848Z,5
2018-05-02T04:21:41.567Z,10
2018-05-02T04:22:42.334Z,10
2018-05-02T04:23:42.063Z,10
2018-05-02T04:24:41.835Z,10
2018-05-02T04:25:41.828Z,10
2018-05-02T04:26:42.049Z,10
2018-05-02T04:27:41.794Z,10
2018-05-02T04:28:41.304Z,10
2018-05-02T04:29:41.545Z,15
2018-05-02T04:30:42.030Z,15
2018-05-02T04:31:41.786Z,15
2018-05-02T04:32:42.026Z,15
2018-05-02T04:33:41.782Z,15
2018-05-02T04:34:41.771Z,15
2018-05-02T04:35:42.043Z,20
2018-05-02T04:36:42.015Z,20
2018-05-02T04:37:41.527Z,20
2018-05-02T04:38:41.256Z,20
2018-05-02T04:39:42.017Z,20
2018-05-02T04:40:41.756Z,20
2018-05-02T04:41:41.984Z,20
2018-05-02T04:42:41.749Z,20
2018-05-02T04:43:42.307Z,25
2018-05-02T04:44:41.487Z,25
2018-05-02T04:45:41.973Z,25
2018-05-02T04:46:41.803Z,25
2018-05-02T04:47:41.956Z,25
2018-05-02T04:48:42.911Z,30
2018-05-02T04:49:41.959Z,30
2018-05-02T04:50:41.966Z,30
2018-05-02T04:51:41.695Z,30
2018-05-02T04:52:42.086Z,30
2018-05-02T04:53:41.716Z,30
2018-05-02T04:54:42.203Z,30
2018-05-02T04:55:41.754Z,35
2018-05-02T04:56:41.458Z,35
2018-05-02T04:57:41.423Z,35
2018-05-02T04:58:41.924Z,35
2018-05-02T04:59:42.109Z,35
2018-05-02T05:00:42.018Z,35
2018-05-02T05:01:41.901Z,35
2018-05-02T05:02:41.906Z,35
2018-05-02T05:03:41.906Z,35
2018-05-02T05:04:41.896Z,35
2018-05-02T05:05:41.664Z,30
2018-05-02T05:06:42.227Z,30
2018-05-02T05:07:41.712Z,30
2018-05-02T05:08:41.888Z,30
2018-05-02T05:09:42.133Z,25
2018-05-02T05:10:41.939Z,25
2018-05-02T05:11:41.619Z,25
2018-05-02T05:12:41.865Z,20
2018-05-02T05:13:42.037Z,20
2018-05-02T05:14:41.867Z,20
2018-05-02T05:15:41.868Z,20
2018-05-02T05:16:41.593Z,20
2018-05-02T05:17:41.342Z,20
2018-05-02T05:18:42.891Z,20
2018-05-02T05:19:41.337Z,20
2018-05-02T05:20:41.885Z,20
2018-05-02T05:21:41.584Z,20
2018-05-02T05:22:41.585Z,25
2018-05-02T05:23:41.564Z,25
2018-05-02T05:24:42.083Z,25
2018-05-02T05:25:41.905Z,25
2018-05-02T05:26:41.557Z,30
2018-05-02T05:27:41.596Z,30
2018-05-02T05:28:41.538Z,35
2018-05-02T05:29:41.534Z,35
2018-05-02T05:30:41.390Z,40
2018-05-02T05:31:41.798Z,45
2018-05-02T05:32:41.276Z,45
2018-05-02T05:33:41.623Z,45
2018-05-02T05:34:41.794Z,45
2018-05-02T05:35:42.070Z,45
2018-05-02T05:36:41.785Z,45
2018-05-02T05:37:41.795Z,45
2018-05-02T05:38:41.508Z,45
2018-05-02T05:39:41.747Z,45
2018-05-02T05:40:41.562Z,45
2018-05-02T05:41:41.493Z,45
2018-05-02T05:42:41.248Z,45
2018-05-02T05:43:41.959Z,45
2018-05-02T05:44:41.729Z,40
2018-05-02T05:45:41.618Z,40
2018-05-02T05:46:41.984Z,40
2018-05-02T05:47:41.727Z,40
2018-05-02T05:48:41.710Z,40
2018-05-02T05:49:44.315Z,40
2018-05-02T05:50:41.499Z,40
2018-05-02T05:51:41.945Z,40
2018-05-02T05:52:41.700Z,40
2018-05-02T05:53:40.978Z,40
2018-05-02T05:54:41.351Z,40
2018-05-02T05:55:41.748Z,45
2018-05-02T05:56:41.709Z,45
2018-05-02T05:57:41.449Z,45
2018-05-02T05:58:41.677Z,45
2018-05-02T05:59:41.673Z,50
2018-05-02T06:00:41.744Z,55
2018-05-02T06:01:41.660Z,60
2018-05-02T06:02:41.173Z,65
2018-05-02T06:03:41.404Z,65
2018-05-02T06:04:41.397Z,70
2018-05-02T06:05:41.929Z,65
2018-05-02T06:06:42.015Z,65
2018-05-02T06:07:41.638Z,65
2018-05-02T06:08:41.883Z,65
2018-05-02T06:09:41.643Z,65
2018-05-02T06:10:41.394Z,65
2018-05-02T06:11:41.224Z,65
2018-05-02T06:12:42.312Z,70
2018-05-02T06:22:20.345Z,60
2018-05-02T06:23:20.703Z,65
2018-05-02T06:24:19.518Z,65
2018-05-02T06:25:20.242Z,65
2018-05-02T06:26:20.282Z,65
2018-05-02T06:27:19.962Z,70
2018-05-02T06:28:20.194Z,70
2018-05-02T06:29:19.197Z,70
2018-05-02T06:30:21.109Z,70
2018-05-02T06:31:20.242Z,70
2018-05-02T06:32:19.981Z,70
2018-05-02T06:33:20.247Z,75
2018-05-02T06:34:19.480Z,75
2018-05-02T06:35:19.892Z,75
2018-05-02T06:36:19.380Z,75
2018-05-02T06:37:19.641Z,80
2018-05-02T06:38:19.628Z,85
2018-05-02T06:39:19.897Z,85
2018-05-02T06:40:19.635Z,85
2018-05-02T06:41:19.872Z,90
2018-05-02T06:42:19.614Z,95
2018-05-02T06:43:19.603Z,95
2018-05-02T06:44:19.854Z,100
2018-05-02T06:45:19.092Z,105
2018-05-02T06:46:19.596Z,105
2018-05-02T06:47:19.593Z,110
2018-05-02T06:48:19.830Z,115
2018-05-02T06:49:19.829Z,120
2018-05-02T06:50:19.159Z,120
2018-05-02T06:51:19.819Z,120
2018-05-02T06:52:19.870Z,120
2018-05-02T06:53:19.563Z,120
2018-05-02T06:54:19.322Z,120
2018-05-02T06:55:19.321Z,120
2018-05-02T06:56:19.566Z,120
2018-05-02T06:57:19.795Z,120
2018-05-02T06:58:19.682Z,120
2018-05-02T06:59:19.580Z,120
2018-05-02T07:00:19.870Z,120
2018-05-02T07:01:19.540Z,120
2018-05-02T07:02:19.540Z,120
2018-05-02T07:03:19.558Z,120
2018-05-02T07:04:19.774Z,120
2018-05-02T07:05:19.273Z,120
2018-05-02T07:06:19.524Z,120
2018-05-02T07:07:19.774Z,120
2018-05-02T07:08:19.514Z,120
2018-05-02T07:09:19.532Z,120
2018-05-02T07:10:19.035Z,115
2018-05-02T07:11:19.509Z,120
2018-05-02T07:12:19.759Z,115
2018-05-02T07:13:19.252Z,110
2018-05-02T07:14:19.271Z,110
2018-05-02T07:15:19.499Z,110
2018-05-02T07:16:19.501Z,110
2018-05-02T07:17:19.283Z,115
2018-05-02T07:18:19.499Z,120
2018-05-02T07:19:19.494Z,120
2018-05-02T07:20:19.751Z,115
2018-05-02T07:21:19.492Z,115
2018-05-02T07:22:20.829Z,115
2018-05-02T07:23:19.460Z,110
2018-05-02T07:24:19.446Z,100
2018-05-02T07:25:19.214Z,95
2018-05-02T07:26:19.456Z,95
2018-05-02T07:27:18.958Z,90
2018-05-02T07:28:19.215Z,95
2018-05-02T07:29:19.461Z,100
2018-05-02T07:30:19.209Z,100
2018-05-02T07:31:19.212Z,105
2018-05-02T07:32:19.044Z,105
2018-05-02T07:33:19.449Z,110
2018-05-02T07:34:19.699Z,105
2018-05-02T07:35:19.443Z,105
2018-05-02T07:36:19.193Z,110
2018-05-02T07:37:19.436Z,115
2018-05-02T07:38:19.195Z,120
2018-05-02T07:39:18.942Z,120
2018-05-02T07:40:19.437Z,110
2018-05-02T07:41:19.461Z,110
2018-05-02T07:42:19.010Z,110
2018-05-02T07:43:19.710Z,110
2018-05-02T07:44:19.415Z,110
2018-05-02T07:45:19.439Z,110
2018-05-02T07:46:18.913Z,105
2018-05-02T07:47:19.418Z,100
2018-05-02T07:48:19.677Z,100
2018-05-02T07:49:19.159Z,100
2018-05-02T07:50:19.649Z,100
2018-05-02T07:51:19.647Z,105
2018-05-02T07:52:19.943Z,105
2018-05-02T07:53:19.398Z,110
2018-05-02T07:54:19.127Z,115
2018-05-02T07:55:19.400Z,120
2018-05-02T07:56:18.875Z,125
2018-05-02T07:57:19.133Z,120
2018-05-02T07:58:18.897Z,110
2018-05-02T07:59:19.150Z,110
2018-05-02T08:00:19.133Z,105
2018-05-02T08:01:19.111Z,110
2018-05-02T08:02:19.634Z,120
2018-05-02T08:03:19.628Z,130
2018-05-02T08:04:19.354Z,135
2018-05-02T08:05:19.355Z,125
2018-05-02T08:06:19.359Z,120
2018-05-02T08:07:19.338Z,125
2018-05-02T08:08:19.393Z,125
2018-05-02T08:09:19.400Z,125
2018-05-02T08:10:19.363Z,135
2018-05-02T08:11:19.340Z,145
2018-05-02T08:12:18.831Z,165
2018-05-02T08:13:19.338Z,170
2018-05-02T08:14:18.831Z,175
2018-05-02T08:15:19.614Z,170
2018-05-02T08:16:19.364Z,175
2018-05-02T08:17:19.075Z,210
2018-05-02T08:18:19.342Z,220
2018-05-02T08:19:19.317Z,225
2018-05-02T08:20:18.810Z,240
2018-05-02T08:21:19.316Z,235
2018-05-02T08:22:19.822Z,235
2018-05-02T08:23:19.564Z,225
2018-05-02T08:24:19.312Z,230
2018-05-02T08:25:19.296Z,235
2018-05-02T08:26:19.314Z,240
2018-05-02T08:27:19.304Z,240
2018-05-02T08:28:19.301Z,250
2018-05-02T08:29:19.548Z,275
2018-05-02T08:30:19.297Z,280
2018-05-02T08:31:19.293Z,310
2018-05-02T08:32:19.293Z,330
2018-05-02T08:33:19.292Z,305
2018-05-02T08:34:19.301Z,295
2018-05-02T08:35:18.795Z,280
2018-05-02T08:36:19.115Z,260
2018-05-02T08:37:19.286Z,250
2018-05-02T08:38:18.915Z,250
2018-05-02T08:39:19.557Z,250
2018-05-02T08:40:19.294Z,260
2018-05-02T08:41:19.644Z,280
2018-05-02T08:42:19.300Z,330
2018-05-02T08:43:19.549Z,335
2018-05-02T08:44:19.275Z,305
2018-05-02T08:45:19.029Z,290
2018-05-02T08:46:19.300Z,290
2018-05-02T08:47:18.788Z,285
2018-05-02T08:48:19.313Z,275
2018-05-02T08:49:18.779Z,270
2018-05-02T08:50:19.271Z,280
2018-05-02T08:51:19.532Z,275
2018-05-02T08:52:18.774Z,280
2018-05-02T08:53:20.348Z,300
2018-05-02T08:54:19.025Z,315
2018-05-02T08:55:19.275Z,325
2018-05-02T08:56:19.035Z,340
2018-05-02T08:57:19.279Z,345
2018-05-02T08:58:19.033Z,345
2018-05-02T08:59:19.017Z,340
2018-05-02T09:00:18.785Z,325
2018-05-02T09:01:19.280Z,320
2018-05-02T09:02:19.295Z,315
2018-05-02T09:03:19.294Z,315
2018-05-02T09:04:19.263Z,320
2018-05-02T09:05:19.538Z,325
2018-05-02T09:06:19.268Z,325
2018-05-02T09:07:19.514Z,340
2018-05-02T09:08:19.032Z,345
2018-05-02T09:09:18.768Z,340
2018-05-02T09:10:19.558Z,340
2018-05-02T09:11:18.853Z,335
2018-05-02T09:12:19.365Z,340
2018-05-02T09:13:19.540Z,340
2018-05-02T09:14:19.040Z,335
2018-05-02T09:15:18.785Z,330
2018-05-02T09:16:19.520Z,330
2018-05-02T09:17:18.786Z,335
2018-05-02T09:18:19.025Z,345
2018-05-02T09:19:19.278Z,355
2018-05-02T09:20:19.521Z,355
2018-05-02T09:21:19.269Z,360
2018-05-02T09:22:18.817Z,355
2018-05-02T09:23:20.107Z,360
2018-05-02T09:24:19.040Z,360
2018-05-02T09:25:19.286Z,365
2018-05-02T09:26:19.520Z,375
2018-05-02T09:27:19.282Z,385
2018-05-02T09:28:19.285Z,390
2018-05-02T09:29:19.307Z,395
2018-05-02T09:30:19.529Z,395
2018-05-02T09:31:18.549Z,405
2018-05-02T09:32:19.036Z,395
2018-05-02T09:33:19.031Z,400
2018-05-02T09:34:19.036Z,395
2018-05-02T09:35:19.287Z,390
2018-05-02T09:36:19.292Z,385
2018-05-02T09:37:19.557Z,385
2018-05-02T09:38:19.288Z,385
2018-05-02T09:39:19.557Z,385
2018-05-02T09:40:19.301Z,385
2018-05-02T09:41:18.865Z,380
2018-05-02T09:42:19.313Z,380
2018-05-02T09:43:18.817Z,380
2018-05-02T09:44:19.925Z,375
2018-05-02T09:45:19.047Z,375
2018-05-02T09:46:19.055Z,375
2018-05-02T09:47:19.312Z,375
2018-05-02T09:48:18.553Z,375
2018-05-02T09:49:19.048Z,380
2018-05-02T09:50:19.054Z,375
2018-05-02T09:51:18.815Z,385
2018-05-02T09:52:19.053Z,380
2018-05-02T09:53:20.819Z,385
2018-05-02T09:54:19.067Z,390
2018-05-02T09:55:18.814Z,395
2018-05-02T09:56:19.576Z,395
2018-05-02T09:57:19.059Z,390
2018-05-02T09:58:18.978Z,395
2018-05-02T09:59:19.356Z,395
2018-05-02T10:00:19.313Z,400
2018-05-02T10:01:19.318Z,395
2018-05-02T10:02:19.077Z,395
2018-05-02T10:03:19.322Z,395
2018-05-02T10:04:19.312Z,400
2018-05-02T10:05:18.837Z,395
2018-05-02T10:06:19.079Z,395
2018-05-02T10:07:19.329Z,385
2018-05-02T10:08:18.826Z,380
2018-05-02T10:09:19.320Z,370
2018-05-02T10:10:19.358Z,365
2018-05-02T10:11:19.348Z,365
2018-05-02T10:12:19.329Z,360
2018-05-02T10:13:18.868Z,360
2018-05-02T10:14:19.325Z,360
2018-05-02T10:15:19.581Z,360
2018-05-02T10:16:19.153Z,360
2018-05-02T10:17:19.326Z,360
2018-05-02T10:18:18.592Z,355
2018-05-02T10:19:19.357Z,350
2018-05-02T10:20:19.368Z,350
2018-05-02T10:21:19.354Z,345
2018-05-02T10:22:19.340Z,340
2018-05-02T10:52:50.499Z,355
2018-05-02T10:53:50.244Z,355
2018-05-02T10:54:50.728Z,355
2018-05-02T10:55:50.304Z,355
2018-05-02T10:56:50.468Z,355
2018-05-02T10:57:50.252Z,355
2018-05-02T10:58:50.230Z,360
2018-05-02T10:59:50.713Z,365
2018-05-02T11:00:50.284Z,370
2018-05-02T11:01:50.490Z,380
2018-05-02T11:02:50.721Z,385
2018-05-02T11:03:50.714Z,395
2018-05-02T11:04:50.454Z,390
2018-05-02T11:05:50.524Z,395
2018-05-02T11:06:50.221Z,395
2018-05-02T11:07:50.487Z,400
2018-05-02T11:08:49.973Z,400
2018-05-02T11:09:50.462Z,400
2018-05-02T11:10:50.570Z,395
2018-05-02T11:11:49.979Z,400
2018-05-02T11:12:50.468Z,415
2018-05-02T11:13:50.479Z,405
2018-05-02T11:14:49.716Z,405
2018-05-02T11:15:50.476Z,405
2018-05-02T11:16:50.486Z,405
2018-05-02T11:17:50.772Z,410
2018-05-02T11:18:50.225Z,405
2018-05-02T11:19:50.229Z,400
2018-05-02T11:20:50.533Z,405
2018-05-02T11:21:50.257Z,395
2018-05-02T11:22:50.746Z,395
2018-05-02T11:23:50.730Z,395
2018-05-02T11:24:50.226Z,395
2018-05-02T11:25:50.254Z,395
2018-05-02T11:26:49.982Z,395
2018-05-02T11:27:51.292Z,395
2018-05-02T11:28:50.243Z,395
2018-05-02T11:29:50.238Z,390
2018-05-02T11:30:50.831Z,380
2018-05-02T11:31:50.499Z,365
2018-05-02T11:32:50.248Z,355
2018-05-02T11:33:50.540Z,355
2018-05-02T11:34:50.774Z,350
2018-05-02T11:35:50.378Z,340
2018-05-02T11:36:50.495Z,340
2018-05-02T11:37:50.759Z,345
2018-05-02T11:38:50.265Z,340
2018-05-02T11:39:50.505Z,325
2018-05-02T11:40:50.064Z,315
2018-05-02T11:41:50.259Z,300
2018-05-02T11:42:50.013Z,315
2018-05-02T11:43:50.272Z,335
2018-05-02T11:44:50.507Z,335
2018-05-02T11:45:50.597Z,355
2018-05-02T11:46:50.516Z,350
2018-05-02T11:47:51.056Z,360
2018-05-02T11:48:50.515Z,365
2018-05-02T11:49:50.790Z,370
2018-05-02T11:50:50.571Z,370
2018-05-02T11:51:50.761Z,370
2018-05-02T11:52:50.282Z,370
2018-05-02T11:53:50.025Z,370
2018-05-02T11:54:50.591Z,365
2018-05-02T11:55:50.536Z,355
2018-05-02T11:56:50.031Z,355
2018-05-02T11:57:50.781Z,355
2018-05-02T11:58:50.764Z,365
2018-05-02T11:59:50.539Z,355
2018-05-02T12:00:50.323Z,360
2018-05-02T12:01:50.050Z,350
2018-05-02T12:02:50.414Z,350
2018-05-02T12:03:50.539Z,355
2018-05-02T12:04:50.306Z,365
2018-05-02T12:05:50.853Z,380
2018-05-02T12:06:50.293Z,385
2018-05-02T12:07:50.321Z,370
2018-05-02T12:08:50.052Z,355
2018-05-02T12:09:50.331Z,340
2018-05-02T12:10:50.409Z,325
2018-05-02T12:11:50.306Z,320
2018-05-02T12:12:50.306Z,320
2018-05-02T12:13:50.302Z,330
2018-05-02T12:14:50.594Z,350
2018-05-02T12:15:50.325Z,360
2018-05-02T12:16:50.816Z,380
2018-05-02T12:17:50.332Z,395
2018-05-02T12:18:50.575Z,405
2018-05-02T12:19:50.350Z,405
2018-05-02T12:20:50.643Z,400
2018-05-02T12:21:50.650Z,400
2018-05-02T12:22:50.320Z,385
2018-05-02T12:23:50.343Z,375
2018-05-02T12:24:50.590Z,360
2018-05-02T12:25:50.077Z,335
2018-05-02T12:26:50.351Z,315
2018-05-02T12:27:50.588Z,295
2018-05-02T12:28:50.838Z,285
2018-05-02T12:29:50.595Z,275
2018-05-02T12:30:50.356Z,270
2018-05-02T12:31:50.092Z,265
2018-05-02T12:32:51.393Z,265
2018-05-02T12:33:50.591Z,275
2018-05-02T12:34:50.360Z,275
2018-05-02T12:35:50.357Z,275
2018-05-02T12:36:50.360Z,280
2018-05-02T12:37:50.369Z,290
2018-05-02T12:38:50.366Z,300
2018-05-02T12:39:50.626Z,300
2018-05-02T12:40:51.113Z,305
2018-05-02T12:41:50.630Z,315
2018-05-02T12:42:50.371Z,330
2018-05-02T12:43:50.616Z,340
2018-05-02T12:44:50.385Z,345
2018-05-02T12:45:50.519Z,340
2018-05-02T12:46:50.853Z,330
2018-05-02T12:47:50.147Z,325
2018-05-02T12:48:50.396Z,320
2018-05-02T12:49:50.943Z,315
2018-05-02T12:50:50.649Z,320
2018-05-02T12:51:50.428Z,320
2018-05-02T12:52:50.171Z,320
2018-05-02T12:53:50.662Z,325
2018-05-02T12:54:50.400Z,335
2018-05-02T12:55:50.674Z,340
2018-05-02T12:56:50.645Z,345
2018-05-02T12:57:50.643Z,345
2018-05-02T12:58:50.661Z,345
2018-05-02T12:59:50.919Z,340
2018-05-02T13:00:50.247Z,335
2018-05-02T13:01:50.923Z,335
2018-05-02T13:02:50.683Z,340
2018-05-02T13:03:50.661Z,340
2018-05-02T13:04:49.948Z,335
2018-05-02T13:05:50.169Z,330
2018-05-02T13:06:50.431Z,325
2018-05-02T13:07:50.922Z,325
2018-05-02T13:08:50.415Z,320
2018-05-02T13:09:51.049Z,315
2018-05-02T13:10:50.680Z,310
2018-05-02T13:11:50.440Z,310
2018-05-02T13:12:50.471Z,310
2018-05-02T13:13:50.435Z,305
2018-05-02T13:14:50.238Z,305
2018-05-02T13:15:49.955Z,300
2018-05-02T13:16:50.697Z,295
2018-05-02T13:17:50.732Z,300
2018-05-02T13:18:50.458Z,295
2018-05-02T13:19:50.699Z,300
2018-05-02T13:20:51.025Z,305
2018-05-02T13:21:50.959Z,310
2018-05-02T13:22:50.705Z,310
2018-05-02T13:23:50.203Z,315
2018-05-02T13:24:50.722Z,305
2018-05-02T13:25:50.495Z,300
2018-05-02T13:26:50.744Z,290
2018-05-02T13:27:50.465Z,285
2018-05-02T13:28:50.502Z,280
2018-05-02T13:29:50.738Z,275
2018-05-02T13:30:50.787Z,270
2018-05-02T13:31:50.737Z,270
2018-05-02T13:32:50.785Z,275
2018-05-02T13:33:50.506Z,275
2018-05-02T13:34:50.788Z,280
2018-05-02T13:35:50.777Z,275
2018-05-02T13:36:50.744Z,275
2018-05-02T13:37:50.998Z,275
2018-05-02T13:38:50.996Z,270
2018-05-02T13:39:50.245Z,265
2018-05-02T13:40:50.553Z,255
2018-05-02T13:41:51.034Z,240
2018-05-02T13:42:50.529Z,230
2018-05-02T13:43:50.576Z,225
2018-05-02T13:44:50.781Z,220
2018-05-02T13:45:51.087Z,220
2018-05-02T13:46:50.765Z,220
2018-05-02T13:47:50.506Z,225
2018-05-02T13:48:51.006Z,230
2018-05-02T13:49:51.017Z,240
2018-05-02T13:50:50.871Z,245
2018-05-02T13:51:51.141Z,245
2018-05-02T13:52:50.756Z,245
2018-05-02T13:53:50.850Z,240
2018-05-02T13:54:50.540Z,245
2018-05-02T13:55:50.806Z,255
2018-05-02T13:56:50.787Z,260
2018-05-02T13:57:50.349Z,260
2018-05-02T13:58:51.028Z,270
2018-05-02T13:59:50.786Z,275
2018-05-02T14:00:50.680Z,280
2018-05-02T14:01:50.801Z,290
2018-05-02T14:02:50.543Z,290
2018-05-02T14:03:50.810Z,295
2018-05-02T14:04:51.083Z,290
2018-05-02T14:05:50.864Z,290
2018-05-02T14:06:50.544Z,285
2018-05-02T14:07:50.797Z,280
2018-05-02T14:08:51.108Z,275
2018-05-02T14:09:50.812Z,265
2018-05-02T14:10:50.561Z,255
2018-05-02T14:11:51.068Z,245
2018-05-02T14:12:50.808Z,240
2018-05-02T14:13:50.841Z,240
2018-05-02T14:14:50.310Z,245
2018-05-02T14:15:50.072Z,250
2018-05-02T14:16:50.806Z,260
2018-05-02T14:17:50.829Z,270
2018-05-02T14:18:51.365Z,290
2018-05-02T14:19:50.341Z,305
2018-05-02T14:20:50.590Z,310
2018-05-02T14:21:50.812Z,310
2018-05-02T14:22:50.594Z,305
2018-05-02T14:23:50.958Z,300
2018-05-02T14:24:51.693Z,300
2018-05-02T14:25:51.143Z,305
2018-05-02T14:26:50.844Z,305
2018-05-02T14:27:50.588Z,300
2018-05-02T14:28:50.592Z,300
2018-05-02T14:29:50.837Z,295
2018-05-02T14:30:51.122Z,305
2018-05-02T14:31:50.607Z,320
2018-05-02T14:32:50.753Z,340
2018-05-02T14:33:50.768Z,335
2018-05-02T14:34:50.847Z,340
2018-05-02T14:35:50.934Z,335
2018-05-02T14:36:50.606Z,335
2018-05-02T14:37:50.352Z,325
2018-05-02T14:38:50.616Z,320
2018-05-02T14:39:50.608Z,315
2018-05-02T14:40:50.624Z,315
2018-05-02T14:41:50.363Z,320
2018-05-02T14:42:51.100Z,320
2018-05-02T14:43:50.634Z,320
2018-05-02T14:44:50.895Z,320
2018-05-02T14:45:50.940Z,315
2018-05-02T14:46:51.130Z,310